CheckWX is a tool to help pilots better visualize weather data.  It is not intended as a substitute for an official pre-flight weather briefing.

20:33:05 UTC

KCEU METAR
Oconee County Regional Airport
Clemson, South Carolina, USA
Current

39 mins ago

KCEU 221954Z AUTO 26014G21KT 10SM CLR 19/M04 A2988 RMK AO2 SLP113 T01941039
Observed
Mar-22 @ 19:54 UTC
Wind
  • 260° at 14 KTS
  • Gusting to 21 KTS
Visibility
10 SM
Flight Rules
VFR
Cloud Levels
  • Clear skies
Temperature
19°C / 66°F
Dewpoint
-4°C / 25°F
Humidity
21%
Altimeter
29.88" Hg
Pressure
1011.3 hPa
Previous

2 hours ago

KCEU 221854Z AUTO 28015G20KT 10SM CLR 19/M03 A2989 RMK AO2 SLP119 T01891028
Observed
Mar-22 @ 18:54 UTC
Wind
  • 280° at 15 KTS
  • Gusting to 20 KTS
Visibility
10 SM
Flight Rules
VFR
Cloud Levels
  • Clear skies
Temperature
19°C / 66°F
Dewpoint
-3°C / 27°F
Humidity
22%
Altimeter
29.89" Hg
Pressure
1011.9 hPa
Previous

3 hours ago

KCEU 221754Z AUTO 27010G18KT 10SM CLR 17/M03 A2993 RMK AO2 SLP132 T01721028 10172 20033 58016
Observed
Mar-22 @ 17:54 UTC
Wind
  • 270° at 10 KTS
  • Gusting to 18 KTS
Visibility
10 SM
Flight Rules
VFR
Cloud Levels
  • Clear skies
Temperature
17°C / 63°F
Dewpoint
-3°C / 27°F
Humidity
25%
Altimeter
29.93" Hg
Pressure
1013.2 hPa